createdAt,value
2023-01-29T00:02:05.943Z,85.54
2023-01-29T00:05:25.983Z,85.35
2023-01-29T00:08:30.394Z,85.62
2023-01-29T00:11:33.439Z,85.37
2023-01-29T00:14:36.124Z,85.34
2023-01-29T00:17:39.200Z,85.14
2023-01-29T00:20:43.965Z,84.97
2023-01-29T00:23:47.405Z,84.98
2023-01-29T00:26:50.476Z,84.95
2023-01-29T00:30:11.573Z,84.69
2023-01-29T00:33:14.413Z,84.60
2023-01-29T00:36:20.648Z,83.98
2023-01-29T00:39:31.447Z,83.90
2023-01-29T00:42:58.283Z,84.33
2023-01-29T00:46:01.021Z,84.64
2023-01-29T00:49:04.741Z,84.50
2023-01-29T00:52:25.651Z,84.87
2023-01-29T00:55:28.716Z,84.93
2023-01-29T00:58:34.599Z,85.34
2023-01-29T01:01:56.439Z,85.26
2023-01-29T01:04:59.300Z,85.18
2023-01-29T01:08:02.446Z,85.24
2023-01-29T01:11:06.977Z,85.01
2023-01-29T01:14:10.095Z,84.98
2023-01-29T01:17:12.872Z,84.91
2023-01-29T01:20:16.301Z,84.69
2023-01-29T01:23:20.033Z,84.66
2023-01-29T01:26:23.162Z,84.42
2023-01-29T01:29:25.904Z,84.24
2023-01-29T01:32:29.050Z,84.13
2023-01-29T01:35:32.127Z,83.81
2023-01-29T01:38:36.356Z,83.71
2023-01-29T01:41:39.086Z,83.37
2023-01-29T01:45:01.503Z,83.57
2023-01-29T01:48:04.240Z,83.46
2023-01-29T01:51:07.541Z,83.21
2023-01-29T01:54:21.638Z,83.17
2023-01-29T01:57:27.218Z,83.19
2023-01-29T02:00:29.958Z,83.10
2023-01-29T02:03:58.659Z,83.15
2023-01-29T02:07:23.248Z,82.95
2023-01-29T02:10:27.943Z,82.85
2023-01-29T02:13:31.514Z,83.10
2023-01-29T02:16:36.891Z,82.82
2023-01-29T02:19:57.700Z,82.71
2023-01-29T02:23:16.201Z,82.52
2023-01-29T02:26:44.860Z,82.48
2023-01-29T02:30:00.172Z,82.20
2023-01-29T02:33:11.983Z,82.25
2023-01-29T02:36:20.641Z,82.13
2023-01-29T02:39:42.597Z,82.10
2023-01-29T02:42:56.111Z,82.12
2023-01-29T02:46:02.037Z,82.46
2023-01-29T02:49:32.197Z,82.85
2023-01-29T02:52:51.073Z,83.13
2023-01-29T02:56:00.399Z,84.13
2023-01-29T02:59:17.507Z,84.13
2023-01-29T03:02:29.350Z,84.56
2023-01-29T03:06:02.401Z,85.35
2023-01-29T03:09:13.329Z,85.70
2023-01-29T03:12:34.222Z,85.56
2023-01-29T03:15:47.119Z,85.84
2023-01-29T03:18:58.618Z,86.10
2023-01-29T03:22:04.805Z,85.74
2023-01-29T03:25:28.708Z,86.37
2023-01-29T03:28:51.994Z,86.47
2023-01-29T03:32:09.681Z,86.45
2023-01-29T03:35:21.251Z,86.49
2023-01-29T03:38:29.745Z,86.51
2023-01-29T03:41:37.182Z,86.63
2023-01-29T03:45:22.287Z,86.72
2023-01-29T03:48:40.391Z,86.90
2023-01-29T03:51:57.847Z,86.81
2023-01-29T03:55:16.324Z,86.74
2023-01-29T03:58:46.079Z,86.63
2023-01-29T04:01:54.611Z,86.70
2023-01-29T04:05:02.314Z,86.59
2023-01-29T04:08:15.728Z,86.37
2023-01-29T04:11:21.778Z,86.42
2023-01-29T04:14:25.316Z,86.69
2023-01-29T04:17:35.019Z,86.55
2023-01-29T04:20:38.491Z,86.77
2023-01-29T04:23:41.651Z,86.82
2023-01-29T04:26:53.233Z,86.83
2023-01-29T04:30:30.927Z,87.02
2023-01-29T04:33:53.390Z,87.06
2023-01-29T04:37:27.581Z,87.01
2023-01-29T04:40:43.452Z,86.87
2023-01-29T04:43:59.584Z,86.78
2023-01-29T04:47:06.746Z,87.01
2023-01-29T04:50:18.831Z,86.92
2023-01-29T04:53:24.481Z,86.63
2023-01-29T04:56:51.947Z,86.65
2023-01-29T05:00:04.149Z,86.44
2023-01-29T05:03:09.826Z,86.46
2023-01-29T05:06:14.190Z,86.03
2023-01-29T05:09:18.140Z,86.21
2023-01-29T05:12:23.116Z,86.08
2023-01-29T05:15:43.156Z,86.27
2023-01-29T05:18:46.904Z,86.18
2023-01-29T05:21:50.640Z,86.15
2023-01-29T05:24:53.302Z,86.07
2023-01-29T05:28:14.216Z,86.11
2023-01-29T05:31:17.009Z,85.90
2023-01-29T05:34:20.155Z,85.76
2023-01-29T05:37:22.972Z,85.65
2023-01-29T05:40:26.051Z,85.66
2023-01-29T05:43:28.817Z,84.95
2023-01-29T05:46:31.857Z,84.87
2023-01-29T05:49:34.637Z,84.47
2023-01-29T05:52:37.877Z,84.64
2023-01-29T05:55:40.836Z,84.77
2023-01-29T05:58:43.906Z,84.12
2023-01-29T06:01:46.647Z,83.91
2023-01-29T06:04:52.398Z,83.79
2023-01-29T06:07:55.431Z,83.42
2023-01-29T06:10:58.633Z,82.83
2023-01-29T06:14:01.375Z,82.99
2023-01-29T06:17:05.139Z,82.69
2023-01-29T06:20:08.804Z,82.61
2023-01-29T06:23:11.850Z,82.47
2023-01-29T06:26:15.815Z,82.25
2023-01-29T06:29:18.939Z,82.06
2023-01-29T06:32:21.562Z,81.71
2023-01-29T06:35:26.099Z,81.73
2023-01-29T06:38:29.278Z,82.17
2023-01-29T06:41:32.347Z,82.02
2023-01-29T06:44:35.117Z,82.12
2023-01-29T06:47:38.088Z,82.34
2023-01-29T06:50:40.764Z,82.24
2023-01-29T06:53:46.066Z,82.07
2023-01-29T06:56:49.248Z,82.14
2023-01-29T06:59:52.361Z,81.99
2023-01-29T07:02:55.044Z,81.95
2023-01-29T07:05:58.041Z,81.94
2023-01-29T07:09:00.995Z,82.14
2023-01-29T07:12:04.951Z,82.02
2023-01-29T07:15:08.196Z,82.21
2023-01-29T07:18:14.219Z,81.73
2023-01-29T07:21:16.962Z,81.96
2023-01-29T07:24:20.198Z,81.63
2023-01-29T07:27:23.002Z,81.86
2023-01-29T07:30:26.032Z,81.77
2023-01-29T07:33:28.757Z,81.43
2023-01-29T07:36:31.739Z,81.50
2023-01-29T07:39:34.492Z,81.40
2023-01-29T07:42:40.093Z,81.02
2023-01-29T07:45:42.812Z,81.25
2023-01-29T07:48:46.032Z,80.81
2023-01-29T07:51:48.748Z,80.82
2023-01-29T07:54:51.841Z,80.73
2023-01-29T07:57:58.949Z,80.87
2023-01-29T08:01:07.843Z,80.77
2023-01-29T08:04:10.903Z,80.67
2023-01-29T08:07:14.135Z,80.37
2023-01-29T08:10:17.611Z,79.95
2023-01-29T08:13:20.665Z,80.27
2023-01-29T08:16:23.921Z,80.17
2023-01-29T08:19:26.837Z,80.26
2023-01-29T08:22:29.974Z,80.26
2023-01-29T08:25:33.750Z,80.23
2023-01-29T08:28:38.896Z,80.25
2023-01-29T08:31:41.647Z,80.23
2023-01-29T08:34:44.675Z,80.42
2023-01-29T08:37:59.630Z,80.19
2023-01-29T08:41:02.804Z,79.81
2023-01-29T08:44:05.795Z,79.15
2023-01-29T08:47:08.820Z,79.23
2023-01-29T08:50:12.000Z,79.25
2023-01-29T08:53:15.171Z,79.18
2023-01-29T08:56:17.993Z,78.86
2023-01-29T08:59:23.008Z,78.67
2023-01-29T09:02:26.058Z,78.56
2023-01-29T09:05:29.432Z,78.53
2023-01-29T09:08:32.214Z,78.29
2023-01-29T09:11:35.357Z,77.62
2023-01-29T09:14:38.281Z,77.87
2023-01-29T09:17:41.483Z,77.04
2023-01-29T09:20:44.274Z,76.52
2023-01-29T09:23:47.424Z,76.48
2023-01-29T09:26:50.254Z,76.09
2023-01-29T09:29:53.325Z,76.28
2023-01-29T09:32:56.073Z,75.76
2023-01-29T09:35:59.243Z,73.57
2023-01-29T09:39:02.136Z,71.34
2023-01-29T09:42:27.162Z,67.99
2023-01-29T09:45:31.874Z,63.11
2023-01-29T09:48:36.800Z,61.77
2023-01-29T09:51:49.317Z,58.60
2023-01-29T09:55:06.688Z,57.46
2023-01-29T09:58:18.379Z,54.16
2023-01-29T10:01:33.408Z,53.95
2023-01-29T10:05:30.889Z,59.16
2023-01-29T10:08:57.882Z,59.92
2023-01-29T10:12:37.021Z,62.58
2023-01-29T10:15:51.879Z,62.02
2023-01-29T10:19:26.127Z,62.14
2023-01-29T10:22:37.958Z,63.22
2023-01-29T10:25:43.412Z,63.42
2023-01-29T10:28:50.889Z,64.05
2023-01-29T10:32:05.195Z,64.99
2023-01-29T10:35:29.962Z,65.28
2023-01-29T10:38:46.317Z,66.11
2023-01-29T10:42:05.939Z,65.66
2023-01-29T10:45:35.279Z,66.09
2023-01-29T10:49:15.589Z,66.25
2023-01-29T10:52:51.921Z,66.40
2023-01-29T10:56:02.481Z,66.18
2023-01-29T10:59:42.856Z,66.13
2023-01-29T11:02:49.052Z,66.88
2023-01-29T11:05:59.722Z,66.80
2023-01-29T11:09:11.230Z,65.40
2023-01-29T11:12:18.599Z,64.52
2023-01-29T11:15:32.708Z,64.53
2023-01-29T11:18:53.918Z,64.20
2023-01-29T11:22:00.328Z,61.95
2023-01-29T11:25:21.200Z,60.66
2023-01-29T11:28:38.750Z,59.58
2023-01-29T11:31:41.988Z,57.98
2023-01-29T11:35:09.905Z,56.71
2023-01-29T11:38:21.476Z,58.16
2023-01-29T11:41:25.625Z,59.24
2023-01-29T11:44:41.560Z,60.14
2023-01-29T11:47:53.023Z,57.74
2023-01-29T11:51:00.960Z,55.49
2023-01-29T11:54:05.716Z,56.06
2023-01-29T11:57:28.108Z,54.20
2023-01-29T12:00:35.478Z,53.76
2023-01-29T12:03:44.978Z,53.69
2023-01-29T12:06:52.510Z,53.64
2023-01-29T12:09:58.914Z,53.28
2023-01-29T12:13:25.886Z,54.50
2023-01-29T12:16:41.027Z,56.65
2023-01-29T12:19:54.342Z,58.13
2023-01-29T12:23:12.210Z,58.98
2023-01-29T12:26:25.633Z,59.61
2023-01-29T12:29:33.910Z,61.36
2023-01-29T12:32:47.028Z,61.90
2023-01-29T12:36:31.735Z,61.85
2023-01-29T12:39:34.753Z,61.21
2023-01-29T12:42:42.212Z,63.21
2023-01-29T12:45:52.636Z,64.06
2023-01-29T12:48:59.837Z,64.25
2023-01-29T12:52:11.743Z,64.17
2023-01-29T12:55:39.953Z,63.01
2023-01-29T12:58:47.839Z,58.55
2023-01-29T13:01:56.107Z,55.65
2023-01-29T13:05:24.704Z,54.04
2023-01-29T13:08:37.340Z,52.94
2023-01-29T13:11:53.871Z,52.72
2023-01-29T13:14:59.268Z,53.78
2023-01-29T13:18:29.725Z,56.79
2023-01-29T13:21:41.050Z,59.21
2023-01-29T13:24:55.473Z,59.22
2023-01-29T13:28:17.004Z,55.53
2023-01-29T13:31:38.086Z,52.83
2023-01-29T13:34:47.494Z,50.88
2023-01-29T13:37:55.313Z,50.50
2023-01-29T13:41:05.681Z,48.56
2023-01-29T13:44:21.351Z,48.91
2023-01-29T13:47:32.354Z,49.67
2023-01-29T13:50:42.088Z,50.74
2023-01-29T13:53:57.410Z,51.15
2023-01-29T13:57:01.755Z,55.16
2023-01-29T14:00:06.632Z,57.72
2023-01-29T14:03:11.972Z,60.13
2023-01-29T14:06:40.596Z,60.76
2023-01-29T14:09:43.963Z,61.82
2023-01-29T14:12:48.445Z,61.79
2023-01-29T14:15:57.614Z,62.09
2023-01-29T14:19:02.792Z,64.11
2023-01-29T14:22:06.408Z,63.47
2023-01-29T14:25:20.065Z,63.69
2023-01-29T14:28:27.295Z,63.98
2023-01-29T14:31:47.854Z,64.59
2023-01-29T14:34:59.561Z,64.90
2023-01-29T14:38:07.516Z,65.29
2023-01-29T14:41:30.277Z,65.32
2023-01-29T14:44:45.999Z,65.74
2023-01-29T14:47:49.061Z,66.28
2023-01-29T14:50:57.019Z,66.32
2023-01-29T14:54:16.186Z,67.33
2023-01-29T14:57:20.596Z,67.05
2023-01-29T15:00:31.797Z,67.78
2023-01-29T15:03:50.819Z,68.26
2023-01-29T15:07:15.921Z,68.67
2023-01-29T15:10:27.975Z,68.96
2023-01-29T15:13:39.815Z,69.79
2023-01-29T15:17:18.916Z,69.92
2023-01-29T15:20:30.022Z,70.73
2023-01-29T15:23:35.220Z,70.43
2023-01-29T15:26:38.824Z,70.66
2023-01-29T15:29:44.400Z,71.07
2023-01-29T15:32:49.925Z,71.22
2023-01-29T15:36:09.217Z,71.33
2023-01-29T15:39:12.362Z,71.99
2023-01-29T15:42:24.092Z,72.68
2023-01-29T15:45:34.296Z,71.97
2023-01-29T15:48:41.854Z,71.63
2023-01-29T15:51:48.127Z,72.40
2023-01-29T15:54:51.880Z,72.11
2023-01-29T15:57:58.144Z,73.60
2023-01-29T16:01:02.582Z,73.12
2023-01-29T16:04:06.543Z,73.06
2023-01-29T16:07:13.596Z,72.54
2023-01-29T16:10:24.898Z,72.72
2023-01-29T16:13:36.296Z,72.42
2023-01-29T16:16:40.861Z,72.13
2023-01-29T16:19:44.174Z,72.07
2023-01-29T16:22:48.369Z,72.71
2023-01-29T16:25:54.336Z,72.48
2023-01-29T16:29:09.429Z,72.61
2023-01-29T16:32:17.558Z,72.65
2023-01-29T16:35:22.326Z,72.74
2023-01-29T16:38:36.156Z,72.51
2023-01-29T16:41:41.722Z,72.29
2023-01-29T16:45:08.085Z,72.41
2023-01-29T16:48:33.076Z,72.62
2023-01-29T16:51:49.626Z,72.64
2023-01-29T16:55:22.216Z,72.42
2023-01-29T16:58:28.469Z,72.97
2023-01-29T17:01:35.213Z,73.26
2023-01-29T17:04:42.241Z,73.08
2023-01-29T17:07:48.781Z,72.99
2023-01-29T17:10:54.041Z,73.07
2023-01-29T17:13:58.863Z,73.78
2023-01-29T17:17:07.602Z,73.60
2023-01-29T17:20:17.304Z,74.10
2023-01-29T17:23:21.867Z,73.97
2023-01-29T17:26:31.979Z,74.22
2023-01-29T17:29:36.256Z,74.46
2023-01-29T17:32:45.212Z,74.09
2023-01-29T17:35:51.681Z,73.94
2023-01-29T17:38:56.678Z,75.11
2023-01-29T17:42:02.002Z,74.67
2023-01-29T17:45:07.084Z,74.63
2023-01-29T17:48:20.853Z,74.73
2023-01-29T17:51:25.070Z,75.24
2023-01-29T17:54:29.411Z,75.14
2023-01-29T17:57:34.268Z,75.54
2023-01-29T18:00:38.020Z,75.32
2023-01-29T18:03:42.264Z,75.10
2023-01-29T18:06:48.645Z,74.77
2023-01-29T18:09:52.288Z,74.81
2023-01-29T18:12:57.301Z,75.61
2023-01-29T18:16:02.497Z,75.16
2023-01-29T18:19:33.059Z,75.36
2023-01-29T18:22:37.166Z,75.70
2023-01-29T18:25:40.714Z,75.51
2023-01-29T18:28:44.997Z,75.84
2023-01-29T18:31:50.283Z,76.58
2023-01-29T18:34:54.880Z,76.47
2023-01-29T18:37:58.834Z,76.75
2023-01-29T18:41:11.278Z,76.83
2023-01-29T18:44:15.098Z,76.93
2023-01-29T18:47:18.622Z,77.19
2023-01-29T18:50:24.083Z,77.27
2023-01-29T18:53:29.111Z,77.28
2023-01-29T18:56:34.760Z,77.68
2023-01-29T18:59:39.060Z,77.61
2023-01-29T19:02:43.658Z,78.29
2023-01-29T19:05:49.773Z,78.16
2023-01-29T19:09:02.650Z,78.10
2023-01-29T19:12:09.021Z,78.42
2023-01-29T19:15:13.439Z,78.31
2023-01-29T19:18:17.952Z,79.02
2023-01-29T19:21:22.768Z,78.60
2023-01-29T19:24:28.372Z,78.71
2023-01-29T19:27:32.887Z,79.56
2023-01-29T19:30:37.809Z,78.89
2023-01-29T19:33:43.959Z,79.11
2023-01-29T19:36:48.390Z,79.16
2023-01-29T19:39:52.536Z,79.58
2023-01-29T19:43:00.418Z,79.40
2023-01-29T19:46:04.268Z,79.01
2023-01-29T19:49:10.958Z,79.01
2023-01-29T19:52:51.245Z,79.16
2023-01-29T19:56:08.718Z,79.26
2023-01-29T19:59:15.548Z,79.27
2023-01-29T20:02:20.162Z,79.85
2023-01-29T20:05:24.386Z,79.82
2023-01-29T20:08:27.696Z,79.68
2023-01-29T20:11:32.582Z,79.62
2023-01-29T20:14:36.113Z,79.29
2023-01-29T20:17:41.984Z,78.97
2023-01-29T20:20:50.071Z,78.44
2023-01-29T20:23:54.981Z,78.19
2023-01-29T20:26:59.627Z,77.82
2023-01-29T20:30:03.779Z,77.42
2023-01-29T20:33:08.470Z,77.22
2023-01-29T20:36:15.385Z,77.26
2023-01-29T20:39:20.323Z,77.40
2023-01-29T20:42:27.405Z,77.17
2023-01-29T20:45:33.297Z,77.56
2023-01-29T20:48:39.836Z,77.47
2023-01-29T20:51:45.257Z,77.60
2023-01-29T20:54:49.600Z,77.36
2023-01-29T20:58:06.499Z,77.38
2023-01-29T21:01:13.368Z,78.39
2023-01-29T21:04:17.547Z,79.20
2023-01-29T21:07:23.534Z,78.95
2023-01-29T21:10:27.580Z,78.15
2023-01-29T21:13:32.616Z,78.36
2023-01-29T21:16:36.624Z,78.50
2023-01-29T21:19:43.762Z,79.19
2023-01-29T21:22:49.449Z,80.42
2023-01-29T21:25:53.419Z,81.00
2023-01-29T21:28:56.961Z,82.11
2023-01-29T21:32:00.861Z,82.34
2023-01-29T21:35:04.757Z,83.16
2023-01-29T21:38:08.095Z,82.58
2023-01-29T21:41:11.308Z,81.96
2023-01-29T21:44:16.205Z,82.20
2023-01-29T21:47:19.409Z,82.58
2023-01-29T21:50:23.314Z,82.58
2023-01-29T21:53:27.142Z,82.73
2023-01-29T21:56:30.268Z,82.05
2023-01-29T21:59:33.117Z,81.76
2023-01-29T22:02:36.227Z,81.51
2023-01-29T22:05:39.708Z,81.39
2023-01-29T22:08:42.466Z,81.26
2023-01-29T22:11:45.690Z,80.68
2023-01-29T22:14:48.511Z,81.41
2023-01-29T22:17:51.587Z,80.98
2023-01-29T22:20:55.488Z,80.76
2023-01-29T22:23:58.496Z,80.49
2023-01-29T22:27:01.251Z,80.74
2023-01-29T22:30:05.768Z,81.13
2023-01-29T22:33:10.533Z,81.21
2023-01-29T22:36:13.631Z,80.64
2023-01-29T22:39:16.336Z,80.74
2023-01-29T22:42:20.743Z,80.85
2023-01-29T22:45:23.492Z,80.71
2023-01-29T22:48:27.110Z,80.87
2023-01-29T22:51:29.849Z,81.08
2023-01-29T22:54:32.823Z,80.22
2023-01-29T22:57:36.021Z,79.77
2023-01-29T23:00:39.038Z,79.89
2023-01-29T23:03:41.791Z,80.23
2023-01-29T23:06:44.865Z,79.58
2023-01-29T23:09:47.539Z,80.01
2023-01-29T23:12:50.654Z,80.38
2023-01-29T23:15:59.919Z,80.79
2023-01-29T23:19:03.121Z,82.51
2023-01-29T23:22:05.863Z,83.05
2023-01-29T23:25:09.547Z,82.85
2023-01-29T23:28:12.303Z,83.36
2023-01-29T23:31:15.947Z,83.09
2023-01-29T23:34:18.880Z,82.84
2023-01-29T23:37:21.971Z,83.28
2023-01-29T23:40:24.672Z,84.12
2023-01-29T23:43:28.730Z,83.70
2023-01-29T23:46:32.068Z,84.90
2023-01-29T23:49:35.500Z,84.73
2023-01-29T23:52:39.054Z,84.20
2023-01-29T23:55:42.531Z,84.49
2023-01-29T23:58:45.320Z,84.07
